Time;durP1;ratioP1;P1;durP2;ratioP2;P2;SDS_P1;SDS_P2;PMS_P1;PMS_P2;Temp;Humidity;BMP_temperature;BMP_pressure;BME280_temperature;BME280_humidity;BME280_pressure;Samples;Min_cycle;Max_cycle;Signal;HPM_P1;HPM_P2
2022/01/30 00:00:08;;;;;;;20.92;9.27;;;;;;;-2.24;69.29;97514.00;5050030;28;20410;-60
2022/01/30 00:02:39;;;;;;;22.50;9.25;;;;;;;-2.21;69.13;97513.59;5050201;28;20132;-60
2022/01/30 00:05:06;;;;;;;16.77;9.13;;;;;;;-2.40;69.48;97511.81;5039019;28;20128;-60
2022/01/30 00:07:32;;;;;;;20.02;10.57;;;;;;;-2.39;70.09;97509.00;5031194;28;20120;-60
2022/01/30 00:09:58;;;;;;;20.02;9.57;;;;;;;-2.26;69.76;97500.44;5031410;28;20129;-59
2022/01/30 00:12:35;;;;;;;16.83;9.80;;;;;;;-2.32;69.14;97501.25;5010859;28;20050;-60
2022/01/30 00:15:01;;;;;;;19.05;9.05;;;;;;;-2.29;69.19;97496.44;5018063;28;20415;-60
2022/01/30 00:17:35;;;;;;;19.35;8.48;;;;;;;-2.45;69.17;97489.06;5051297;28;20040;-60
2022/01/30 00:20:05;;;;;;;19.60;9.05;;;;;;;-2.65;70.20;97477.88;5051104;28;20037;-59
2022/01/30 00:25:04;;;;;;;19.55;9.75;;;;;;;-2.38;69.62;97483.88;5055129;28;20053;-61
2022/01/30 00:27:46;;;;;;;17.92;8.45;;;;;;;-2.32;69.39;97477.91;5053652;28;20549;-60
2022/01/30 00:30:14;;;;;;;17.30;8.35;;;;;;;-2.41;69.13;97474.72;5053770;28;20040;-60
2022/01/30 00:32:40;;;;;;;16.23;8.48;;;;;;;-2.57;69.20;97465.53;5053377;28;20045;-59
2022/01/30 00:35:08;;;;;;;16.35;8.02;;;;;;;-2.47;69.56;97459.13;5053215;28;20418;-59
2022/01/30 00:37:39;;;;;;;16.55;7.85;;;;;;;-2.43;68.90;97458.53;5053482;28;20051;-60
2022/01/30 00:40:06;;;;;;;15.88;8.43;;;;;;;-2.37;68.51;97439.56;5053305;28;20183;-59
2022/01/30 00:42:32;;;;;;;17.42;8.00;;;;;;;-2.21;68.60;97440.91;5054588;28;20128;-61
2022/01/30 00:44:58;;;;;;;15.60;7.57;;;;;;;-2.23;68.59;97435.16;5054749;28;20502;-59
2022/01/30 00:47:24;;;;;;;12.15;6.82;;;;;;;-2.22;67.17;97426.34;5053335;28;20065;-60
2022/01/30 00:49:49;;;;;;;13.70;6.55;;;;;;;-2.31;67.81;97424.97;5054650;28;20051;-60
2022/01/30 00:52:17;;;;;;;14.40;7.70;;;;;;;-2.35;67.28;97418.63;5053156;28;20106;-59
2022/01/30 00:54:44;;;;;;;12.93;6.53;;;;;;;-2.40;66.76;97411.44;5052918;28;20045;-60
2022/01/30 00:57:10;;;;;;;12.82;6.35;;;;;;;-2.46;67.00;97407.03;5053091;28;20041;-60
2022/01/30 00:59:36;;;;;;;10.15;5.78;;;;;;;-2.49;67.35;97406.66;5053137;28;20091;-60
2022/01/30 01:02:02;;;;;;;10.80;6.03;;;;;;;-2.48;67.17;97403.84;5053016;28;20049;-60
2022/01/30 01:04:28;;;;;;;11.32;6.18;;;;;;;-2.43;67.21;97398.06;5054335;28;20206;-59
2022/01/30 01:06:54;;;;;;;12.10;6.68;;;;;;;-2.51;67.17;97399.06;5054149;28;20140;-59
2022/01/30 01:09:24;;;;;;;11.48;6.13;;;;;;;-2.55;67.28;97388.31;5052898;28;20060;-60
2022/01/30 01:12:09;;;;;;;11.88;6.95;;;;;;;-2.55;67.24;97385.72;5023088;28;20136;-60
2022/01/30 01:25:34;;;;;;;11.32;5.75;;;;;;;-2.58;67.01;97361.97;5052758;28;20053;-60
2022/01/30 01:28:00;;;;;;;10.32;5.60;;;;;;;-2.45;67.24;97354.16;5052499;28;20044;-60
2022/01/30 01:30:25;;;;;;;12.98;6.13;;;;;;;-2.46;66.69;97347.38;5054101;28;20507;-61
2022/01/30 01:32:51;;;;;;;8.38;5.25;;;;;;;-2.59;67.68;97356.00;5051575;28;20048;-60
2022/01/30 01:35:17;;;;;;;11.70;5.40;;;;;;;-2.73;67.46;97349.25;5022716;28;20089;-60
2022/01/30 01:37:43;;;;;;;9.98;5.25;;;;;;;-2.77;67.74;97348.81;5032348;28;20046;-60
2022/01/30 01:40:09;;;;;;;9.77;4.78;;;;;;;-2.77;68.03;97356.59;5033904;28;20053;-59
2022/01/30 01:42:36;;;;;;;10.90;4.95;;;;;;;-2.67;68.25;97347.63;5032285;28;20167;-60
2022/01/30 01:45:03;;;;;;;10.07;5.68;;;;;;;-2.70;68.32;97345.44;5032412;28;20175;-59
2022/01/30 01:47:32;;;;;;;12.63;5.68;;;;;;;-2.76;67.90;97334.09;5033459;28;20050;-60
2022/01/30 01:49:58;;;;;;;10.88;6.00;;;;;;;-2.61;68.38;97323.47;5032129;28;20049;-60
2022/01/30 01:52:26;;;;;;;6.57;4.38;;;;;;;-2.68;67.23;97317.50;5015558;28;20091;-60
2022/01/30 01:54:52;;;;;;;10.73;5.38;;;;;;;-2.62;67.85;97322.69;5012300;28;20048;-59
2022/01/30 01:57:18;;;;;;;8.45;5.10;;;;;;;-2.65;67.76;97319.69;5012220;28;20060;-59
2022/01/30 01:59:48;;;;;;;;;;;;;;;-2.60;68.10;97322.47;5012703;28;20423;-60
2022/01/30 02:02:33;;;;;;;9.23;4.72;;;;;;;-2.62;67.57;97314.09;5016141;28;19932;-59
2022/01/30 02:05:02;;;;;;;5.60;3.90;;;;;;;-2.75;67.29;97301.94;5033394;28;20045;-60
2022/01/30 02:10:11;;;;;;;6.78;3.45;;;;;;;-2.85;67.84;97307.56;5031813;28;20049;-59
2022/01/30 02:12:47;;;;;;;5.53;3.47;;;;;;;-2.90;67.95;97289.22;5032953;28;20041;-60
2022/01/30 02:26:03;;;;;;;6.18;3.97;;;;;;;-2.70;66.97;97276.22;5051743;28;20098;-60
2022/01/30 02:28:32;;;;;;;6.45;3.90;;;;;;;-2.65;67.60;97270.41;5034854;28;20406;-59
2022/01/30 02:31:03;;;;;;;6.68;4.18;;;;;;;-2.70;67.15;97263.25;5052911;28;20045;-60
2022/01/30 02:33:28;;;;;;;;;;;;;;;-2.87;67.50;97254.31;5052868;28;20117;-60
2022/01/30 02:35:55;;;;;;;5.05;3.35;;;;;;;-3.09;68.40;97253.75;5034779;28;20279;-60
2022/01/30 02:38:25;;;;;;;8.18;3.60;;;;;;;-3.00;68.40;97253.34;5051165;28;20044;-59
2022/01/30 02:40:54;;;;;;;5.15;3.47;;;;;;;-2.89;68.07;97248.53;5051463;28;20072;-60
2022/01/30 02:43:25;;;;;;;8.85;3.72;;;;;;;-2.84;67.67;97244.34;5033338;28;20040;-61
2022/01/30 02:48:34;;;;;;;4.90;3.30;;;;;;;-2.71;67.39;97247.88;5051095;28;20041;-60
2022/01/30 02:51:10;;;;;;;6.68;3.88;;;;;;;-2.75;67.54;97240.50;5050597;28;20036;-60
2022/01/30 02:53:40;;;;;;;6.95;3.70;;;;;;;-2.75;67.75;97237.91;5017744;28;20094;-60
2022/01/30 02:56:06;;;;;;;5.57;3.40;;;;;;;-2.76;67.63;97235.53;5052736;28;20080;-60
2022/01/30 02:58:32;;;;;;;6.43;3.97;;;;;;;-2.91;68.12;97224.59;5050821;28;20123;-60
2022/01/30 03:00:58;;;;;;;5.68;3.90;;;;;;;-2.95;68.56;97215.66;5051012;28;20140;-60
2022/01/30 03:03:23;;;;;;;6.13;4.18;;;;;;;-2.85;68.87;97227.19;5050672;28;20033;-60
2022/01/30 03:05:49;;;;;;;6.80;4.05;;;;;;;-2.84;68.32;97230.56;5032596;28;20406;-59
2022/01/30 03:08:15;;;;;;;8.00;4.30;;;;;;;-2.88;68.41;97213.81;5050638;28;20047;-59
2022/01/30 03:10:41;;;;;;;8.23;4.47;;;;;;;-2.95;69.21;97213.84;5034219;28;20053;-60
2022/01/30 03:13:07;;;;;;;8.57;4.88;;;;;;;-2.90;68.50;97215.84;5034033;28;20060;-59
2022/01/30 03:15:33;;;;;;;9.30;5.18;;;;;;;-2.99;69.54;97218.66;5033672;28;20457;-61
2022/01/30 03:17:58;;;;;;;5.45;3.83;;;;;;;-2.98;69.10;97215.03;5051724;28;20041;-59
2022/01/30 03:20:24;;;;;;;7.13;4.38;;;;;;;-2.90;70.58;97203.66;5050732;28;20063;-59
2022/01/30 03:22:50;;;;;;;6.80;4.38;;;;;;;-2.78;69.82;97206.41;5038948;28;20414;-60
2022/01/30 03:25:16;;;;;;;7.90;4.70;;;;;;;-2.73;69.40;97203.22;5031877;28;20049;-60
2022/01/30 03:28:05;;;;;;;5.82;3.45;;;;;;;-2.80;68.45;97205.81;5016519;28;20046;-60
2022/01/30 03:30:36;;;;;;;7.47;4.70;;;;;;;-3.06;69.52;97194.56;5010873;28;20096;-60
2022/01/30 03:33:13;;;;;;;8.13;4.78;;;;;;;-3.03;70.01;97196.75;5010968;28;20066;-59
2022/01/30 03:35:40;;;;;;;10.52;4.82;;;;;;;-2.98;69.78;97196.13;5014629;28;20567;-60
2022/01/30 03:38:06;;;;;;;7.95;4.40;;;;;;;-2.94;70.09;97186.94;5030264;28;20057;-60
2022/01/30 03:40:33;;;;;;;8.90;5.28;;;;;;;-3.06;69.63;97184.19;5030282;28;20538;-59
2022/01/30 03:43:00;;;;;;;7.35;4.30;;;;;;;-3.05;69.91;97180.59;5028125;28;20048;-60
2022/01/30 03:45:27;;;;;;;7.05;4.13;;;;;;;-3.01;69.46;97168.00;5042154;28;20076;-60
2022/01/30 03:47:55;;;;;;;7.50;4.65;;;;;;;-3.04;69.74;97171.00;5030475;28;20079;-58
2022/01/30 03:50:30;;;;;;;7.80;5.38;;;;;;;-3.01;69.86;97166.22;5030221;28;20045;-59
2022/01/30 03:52:56;;;;;;;8.00;4.30;;;;;;;-2.95;70.42;97153.44;5031227;28;20126;-59
2022/01/30 03:55:23;;;;;;;6.30;4.18;;;;;;;-2.95;70.32;97156.81;4997369;28;20076;-61
2022/01/30 03:57:50;;;;;;;8.93;5.00;;;;;;;-2.94;70.30;97147.25;5013692;28;20044;-59
2022/01/30 04:00:16;;;;;;;5.88;4.07;;;;;;;-2.93;69.30;97144.47;5013726;28;20048;-59
2022/01/30 04:02:45;;;;;;;8.30;4.25;;;;;;;-2.96;69.90;97142.28;5031361;28;20041;-59
2022/01/30 04:05:12;;;;;;;6.93;4.32;;;;;;;-3.03;70.15;97139.72;5029928;28;20057;-61
2022/01/30 04:07:38;;;;;;;7.30;4.25;;;;;;;-3.01;69.63;97142.88;5029882;28;20034;-59
2022/01/30 04:10:20;;;;;;;7.68;4.20;;;;;;;-3.01;69.79;97139.50;5031572;28;20091;-61
2022/01/30 04:13:01;;;;;;;9.32;5.55;;;;;;;-2.95;70.06;97136.09;5029898;28;20053;-61
2022/01/30 04:15:45;;;;;;;6.70;4.32;;;;;;;-3.09;70.01;97119.00;5031555;28;20389;-59
2022/01/30 04:18:20;;;;;;;8.90;4.03;;;;;;;-3.13;70.62;97126.38;5030248;28;20068;-60
2022/01/30 04:21:09;;;;;;;7.20;4.20;;;;;;;-3.07;70.03;97119.59;5029249;28;20061;-59
2022/01/30 04:23:47;;;;;;;8.50;4.60;;;;;;;-2.99;69.92;97119.38;5029853;28;20136;-61
2022/01/30 04:26:51;;;;;;;7.47;4.40;;;;;;;-3.03;70.06;97113.81;5028675;28;20132;-59
2022/01/30 04:29:30;;;;;;;7.07;4.32;;;;;;;-3.06;70.13;97116.81;5013998;28;20045;-59
2022/01/30 04:32:16;;;;;;;8.00;4.80;;;;;;;-3.06;70.24;97106.44;5029954;28;20053;-59
2022/01/30 04:35:11;;;;;;;9.07;4.38;;;;;;;-3.00;70.02;97094.41;5033450;28;20144;-59
2022/01/30 04:38:16;;;;;;;10.90;4.80;;;;;;;-3.01;70.61;97098.81;5030920;28;20041;-59
2022/01/30 04:41:32;;;;;;;6.78;4.13;;;;;;;-2.98;70.80;97095.03;5030969;28;20046;-60
2022/01/30 04:53:25;;;;;;;6.13;4.13;;;;;;;-3.00;70.50;97081.47;4998536;28;20133;-59
2022/01/30 04:59:13;;;;;;;7.38;4.30;;;;;;;-3.05;70.14;97074.31;5026526;28;20046;-61
2022/01/30 05:07:40;;;;;;;5.90;4.30;;;;;;;-2.87;70.02;97078.03;5044367;28;20502;-60
2022/01/30 05:10:23;;;;;;;7.13;4.32;;;;;;;-2.91;70.60;97074.25;5053278;28;20072;-59
2022/01/30 05:13:14;;;;;;;6.85;4.05;;;;;;;-3.00;70.33;97066.72;5060959;28;20057;-61
2022/01/30 05:15:43;;;;;;;8.40;4.70;;;;;;;-3.04;70.41;97067.34;5054028;28;20045;-60
2022/01/30 05:18:23;;;;;;;6.75;3.90;;;;;;;-3.08;70.34;97068.78;5052882;28;20049;-61
2022/01/30 05:21:15;;;;;;;4.65;4.00;;;;;;;-3.18;70.47;97069.19;5051359;28;20053;-60
2022/01/30 05:24:01;;;;;;;4.70;3.13;;;;;;;-3.20;70.13;97058.25;5039746;28;20046;-60
2022/01/30 05:26:56;;;;;;;6.35;3.67;;;;;;;-3.18;70.88;97064.00;5033362;28;20057;-60
2022/01/30 05:29:24;;;;;;;7.28;4.30;;;;;;;-3.23;70.87;97061.25;5033932;28;20128;-59
2022/01/30 05:32:11;;;;;;;6.07;4.00;;;;;;;-3.14;70.43;97067.00;5033326;28;20404;-58
2022/01/30 05:34:56;;;;;;;5.50;3.40;;;;;;;-3.15;71.29;97061.00;5036856;28;20049;-58
2022/01/30 05:37:55;;;;;;;6.55;3.63;;;;;;;-3.25;70.66;97061.44;5025647;28;20395;-61
2022/01/30 05:40:39;;;;;;;4.25;3.53;;;;;;;-3.30;70.69;97050.13;5035374;28;20076;-58
2022/01/30 05:43:38;;;;;;;5.97;3.28;;;;;;;-3.17;71.40;97055.25;5012913;28;20515;-57
2022/01/30 05:46:38;;;;;;;7.18;3.13;;;;;;;-3.27;70.55;97044.53;5024194;28;20042;-58
2022/01/30 05:49:33;;;;;;;7.93;3.60;;;;;;;-3.17;71.21;97054.47;5013452;28;20057;-58
2022/01/30 05:52:10;;;;;;;5.00;3.20;;;;;;;-3.24;70.55;97059.66;4980219;28;20049;-58
2022/01/30 05:54:56;;;;;;;7.50;3.67;;;;;;;-3.12;70.36;97046.84;5010097;28;20057;-59
2022/01/30 05:57:22;;;;;;;6.07;3.70;;;;;;;-3.06;70.66;97046.00;4997576;28;20049;-57
2022/01/30 05:59:51;;;;;;;5.45;3.35;;;;;;;-2.96;70.30;97038.59;5004400;28;20576;-58
2022/01/30 06:02:29;;;;;;;5.65;3.38;;;;;;;-2.88;69.95;97043.53;4992201;28;20037;-58
2022/01/30 06:04:54;;;;;;;4.75;2.85;;;;;;;-2.99;70.58;97044.19;5005128;28;20061;-58
2022/01/30 06:07:27;;;;;;;4.93;3.28;;;;;;;-2.95;69.87;97032.41;5013660;28;20041;-59
2022/01/30 06:09:52;;;;;;;5.38;2.67;;;;;;;-2.90;69.41;97027.38;4992443;28;20057;-56
2022/01/30 06:12:18;;;;;;;3.67;2.97;;;;;;;-2.87;69.64;97024.38;5013560;28;20462;-58
2022/01/30 06:14:46;;;;;;;5.75;2.78;;;;;;;-2.89;69.43;97021.19;5031204;28;20227;-58
2022/01/30 06:17:22;;;;;;;3.90;2.75;;;;;;;-2.92;69.17;97028.59;5037967;28;20052;-59
2022/01/30 06:20:11;;;;;;;4.28;2.55;;;;;;;-2.93;69.35;97027.81;5034640;28;20056;-59
2022/01/30 06:23:06;;;;;;;10.23;5.00;;;;;;;-2.83;69.29;97025.53;5026099;28;20139;-58
2022/01/30 06:25:50;;;;;;;8.00;3.97;;;;;;;-2.76;69.27;97026.31;5037554;28;20045;-56
2022/01/30 06:28:16;;;;;;;4.78;3.25;;;;;;;-2.72;69.05;97025.88;5051456;28;20064;-55
2022/01/30 06:31:00;;;;;;;3.70;2.60;;;;;;;-2.69;69.53;97026.25;5022441;28;20057;-57
2022/01/30 06:33:41;;;;;;;3.90;2.85;;;;;;;-2.67;69.17;97026.84;5031103;28;20581;-56
2022/01/30 06:36:26;;;;;;;7.30;3.90;;;;;;;-2.66;69.29;97030.22;5045063;28;20503;-55
2022/01/30 06:39:11;;;;;;;5.35;2.92;;;;;;;-2.70;69.23;97029.84;5028727;28;20073;-54
2022/01/30 06:42:04;;;;;;;5.57;3.28;;;;;;;-2.77;69.60;97024.69;5037129;28;20045;-55
2022/01/30 06:45:02;;;;;;;4.45;2.60;;;;;;;-2.69;68.84;97028.03;5018774;28;20508;-58
2022/01/30 06:47:47;;;;;;;4.18;2.50;;;;;;;-2.71;68.47;97022.25;5031778;28;20110;-54
2022/01/30 06:50:31;;;;;;;3.08;2.42;;;;;;;-2.78;68.60;97022.31;5031182;28;20526;-56
2022/01/30 06:53:35;;;;;;;3.10;2.50;;;;;;;-2.93;69.55;97025.22;5028841;28;20053;-58
2022/01/30 06:56:15;;;;;;;3.78;2.42;;;;;;;-2.77;69.11;97014.31;5023940;28;20037;-60
2022/01/30 06:59:00;;;;;;;5.85;2.90;;;;;;;-2.73;68.53;97017.31;5015863;28;20594;-56
2022/01/30 07:01:52;;;;;;;4.40;2.30;;;;;;;-2.71;68.74;97015.28;5042145;28;20049;-62
2022/01/30 07:04:37;;;;;;;3.35;2.20;;;;;;;-2.61;67.47;97026.00;5029710;28;20467;-61
2022/01/30 07:07:26;;;;;;;2.78;2.05;;;;;;;-2.55;67.47;97022.56;5031036;28;20052;-55
2022/01/30 07:09:52;;;;;;;2.90;1.77;;;;;;;-2.66;66.96;97019.84;5014213;28;20558;-57
2022/01/30 07:12:18;;;;;;;2.90;2.20;;;;;;;-2.77;67.88;97019.50;5012719;28;20072;-55
2022/01/30 07:14:43;;;;;;;2.25;1.90;;;;;;;-2.68;67.25;97014.84;5012898;28;20510;-57
2022/01/30 07:17:09;;;;;;;3.45;2.00;;;;;;;-2.62;67.59;97015.81;5029511;28;20423;-54
2022/01/30 07:19:35;;;;;;;4.97;2.13;;;;;;;-2.71;67.93;97010.09;5029464;28;20201;-54
2022/01/30 07:22:00;;;;;;;2.63;1.75;;;;;;;-2.67;68.09;97010.50;5029015;28;20144;-56
2022/01/30 07:24:26;;;;;;;2.63;2.03;;;;;;;-2.56;67.18;97017.56;5012885;28;20148;-55
2022/01/30 07:26:52;;;;;;;4.45;2.50;;;;;;;-2.46;67.78;97009.31;5028997;28;20388;-55
2022/01/30 07:29:18;;;;;;;3.20;2.47;;;;;;;-2.52;67.78;97010.97;5029094;28;20551;-55
2022/01/30 07:31:43;;;;;;;2.70;1.90;;;;;;;-2.38;67.85;97016.81;5011079;28;20495;-55
2022/01/30 07:34:09;;;;;;;2.47;2.00;;;;;;;-2.38;67.43;97011.63;5011907;28;20038;-57
2022/01/30 07:36:36;;;;;;;4.75;3.10;;;;;;;-2.21;67.23;97007.47;5011848;28;20058;-56
2022/01/30 07:39:06;;;;;;;4.53;2.55;;;;;;;-2.19;66.38;96991.72;5027206;28;20033;-57
2022/01/30 07:41:32;;;;;;;3.53;2.55;;;;;;;-2.04;66.29;96997.34;5010624;28;20053;-59
2022/01/30 07:44:00;;;;;;;3.22;2.20;;;;;;;-2.08;65.90;96985.81;5011869;28;20407;-53
2022/01/30 07:46:28;;;;;;;4.95;2.42;;;;;;;-1.99;65.54;96994.13;5010503;28;20092;-56
2022/01/30 07:48:55;;;;;;;3.28;2.20;;;;;;;-1.99;65.63;96996.72;5010314;28;20049;-55
2022/01/30 07:51:21;;;;;;;3.53;2.53;;;;;;;-2.05;65.20;96993.19;5027151;28;20523;-55
2022/01/30 07:53:46;;;;;;;5.85;2.92;;;;;;;-1.95;65.24;96990.84;5011717;28;20072;-55
2022/01/30 07:56:12;;;;;;;2.65;2.30;;;;;;;-1.83;65.36;96991.72;5012128;28;20496;-57
2022/01/30 07:58:38;;;;;;;5.53;3.25;;;;;;;-1.73;65.42;96990.44;5011639;28;20492;-57
2022/01/30 08:01:04;;;;;;;4.63;2.45;;;;;;;-1.86;64.38;96986.97;5011999;28;20053;-52
2022/01/30 08:03:30;;;;;;;5.65;3.08;;;;;;;-1.91;64.95;96997.22;5011451;28;20050;-53
2022/01/30 08:05:55;;;;;;;4.43;2.70;;;;;;;-1.88;65.19;96988.22;5026789;28;20042;-54
2022/01/30 08:08:21;;;;;;;3.75;2.75;;;;;;;-1.94;64.62;96983.84;5026242;28;20049;-55
2022/01/30 08:10:47;;;;;;;3.45;2.28;;;;;;;-1.86;63.94;96989.56;5026701;28;20069;-54
2022/01/30 08:13:14;;;;;;;4.30;2.03;;;;;;;-1.90;64.22;96983.22;5011382;28;20085;-53
2022/01/30 08:15:40;;;;;;;4.07;2.40;;;;;;;-1.90;64.06;96993.59;5011937;28;20054;-52
2022/01/30 08:18:06;;;;;;;3.45;2.10;;;;;;;-1.90;63.65;96983.22;5011371;28;20034;-52
2022/01/30 08:20:31;;;;;;;3.75;2.50;;;;;;;-1.80;64.02;96990.50;4993800;28;20137;-54
2022/01/30 08:23:00;;;;;;;3.55;2.30;;;;;;;-1.72;63.56;96981.63;4993857;28;20041;-53
2022/01/30 08:25:25;;;;;;;5.25;2.78;;;;;;;-1.70;64.50;96982.22;5011702;28;20042;-52
2022/01/30 08:27:53;;;;;;;3.47;2.15;;;;;;;-1.76;64.23;96977.91;5010361;28;20092;-52
2022/01/30 08:30:19;;;;;;;3.83;2.70;;;;;;;-1.77;63.70;96977.06;4994186;28;20038;-55
2022/01/30 08:32:47;;;;;;;4.35;2.50;;;;;;;-1.65;64.56;96982.34;5011279;28;20065;-54
2022/01/30 08:35:14;;;;;;;3.83;2.17;;;;;;;-1.77;64.12;96982.28;5011601;28;20061;-53
2022/01/30 08:37:41;;;;;;;3.17;2.13;;;;;;;-1.79;63.69;96978.31;4993882;28;20061;-56
2022/01/30 08:40:10;;;;;;;4.78;3.13;;;;;;;-1.87;63.89;96979.41;5010293;28;20143;-57
2022/01/30 08:42:36;;;;;;;3.95;2.47;;;;;;;-1.76;64.67;96973.50;5012715;28;20042;-58
2022/01/30 08:45:04;;;;;;;4.28;2.30;;;;;;;-1.86;63.44;96973.19;5013838;28;20053;-56
2022/01/30 08:47:29;;;;;;;4.03;2.40;;;;;;;-1.80;63.76;96964.53;5014826;28;20037;-54
2022/01/30 08:49:55;;;;;;;3.85;2.33;;;;;;;-1.69;62.92;96963.00;5013642;28;20522;-54
2022/01/30 08:52:21;;;;;;;3.58;2.30;;;;;;;-1.76;63.55;96954.53;5013024;28;20047;-55
2022/01/30 08:54:49;;;;;;;4.78;3.15;;;;;;;-1.83;62.60;96957.97;5014821;28;20054;-56
2022/01/30 08:57:15;;;;;;;3.70;2.15;;;;;;;-1.86;62.37;96971.38;5014398;28;20030;-58
2022/01/30 08:59:40;;;;;;;3.72;2.03;;;;;;;-1.76;62.40;96957.91;5013451;28;20041;-56
2022/01/30 09:02:06;;;;;;;4.65;3.00;;;;;;;-1.50;62.65;96962.00;5029764;28;20041;-56
2022/01/30 09:04:32;;;;;;;3.58;2.45;;;;;;;-1.17;62.58;96953.75;5014801;28;20081;-56
2022/01/30 09:06:58;;;;;;;3.17;2.17;;;;;;;-1.03;61.01;96946.56;5013286;28;20124;-56
2022/01/30 09:09:25;;;;;;;3.47;2.40;;;;;;;-1.01;60.85;96941.91;5013337;28;20041;-56
2022/01/30 09:11:51;;;;;;;3.72;2.90;;;;;;;-1.31;60.97;96947.13;5014475;28;20049;-57
2022/01/30 09:14:17;;;;;;;4.00;2.70;;;;;;;-1.22;60.61;96943.19;5012790;28;20129;-57
2022/01/30 09:16:45;;;;;;;4.75;2.72;;;;;;;-1.19;60.32;96945.34;5013018;28;20539;-55
2022/01/30 09:19:11;;;;;;;6.47;2.85;;;;;;;-1.09;60.09;96949.22;5013061;28;20044;-55
2022/01/30 09:21:37;;;;;;;5.05;2.38;;;;;;;-0.93;60.00;96940.78;5014160;28;20049;-54
2022/01/30 09:24:03;;;;;;;4.90;2.50;;;;;;;-0.94;59.64;96934.81;5013716;28;20045;-55
2022/01/30 09:26:29;;;;;;;2.90;2.17;;;;;;;-1.01;59.70;96935.91;5014056;28;20401;-55
2022/01/30 09:28:54;;;;;;;4.03;2.67;;;;;;;-0.96;59.06;96931.63;5013945;28;20049;-53
2022/01/30 09:31:20;;;;;;;2.53;2.00;;;;;;;-0.93;59.31;96918.19;5014067;28;20045;-58
2022/01/30 09:33:46;;;;;;;4.82;2.03;;;;;;;-1.07;58.57;96921.19;5012881;28;20049;-56
2022/01/30 09:36:13;;;;;;;4.80;2.70;;;;;;;-0.91;59.02;96920.56;5014116;28;20093;-54
2022/01/30 09:38:40;;;;;;;5.00;3.42;;;;;;;-0.72;59.34;96926.44;5012539;28;20628;-56
2022/01/30 09:41:08;;;;;;;3.28;2.40;;;;;;;-0.65;58.83;96915.94;5014260;28;20605;-57
2022/01/30 09:43:34;;;;;;;3.05;2.20;;;;;;;-0.65;58.36;96913.31;5012547;28;20041;-57
2022/01/30 09:46:04;;;;;;;3.08;2.33;;;;;;;-0.67;58.74;96915.38;5014149;28;20111;-56
2022/01/30 09:48:36;;;;;;;4.43;2.30;;;;;;;-0.77;58.90;96902.91;5013500;28;20054;-55
2022/01/30 09:51:09;;;;;;;4.00;2.72;;;;;;;-0.73;58.37;96912.66;5013574;28;20057;-57
2022/01/30 09:53:38;;;;;;;2.55;2.10;;;;;;;-0.74;57.70;96910.28;4995385;28;20056;-56
2022/01/30 09:56:06;;;;;;;6.10;2.95;;;;;;;-0.68;58.12;96901.56;5012595;28;20049;-56
2022/01/30 09:58:32;;;;;;;4.72;2.50;;;;;;;-0.72;58.50;96901.22;4996069;28;20504;-57
2022/01/30 10:00:58;;;;;;;5.30;2.67;;;;;;;-0.81;58.02;96905.19;5012475;28;20042;-57
2022/01/30 10:03:26;;;;;;;8.27;3.38;;;;;;;-0.88;58.23;96903.69;5013440;28;20042;-55
2022/01/30 10:06:00;;;;;;;5.03;3.05;;;;;;;-0.90;58.15;96898.72;5012448;28;20102;-55
2022/01/30 10:08:28;;;;;;;4.85;2.70;;;;;;;-1.00;58.56;96901.91;5013209;28;20038;-53
2022/01/30 10:11:15;;;;;;;4.25;2.17;;;;;;;-1.22;57.95;96870.41;5012342;28;20046;-57
2022/01/30 10:13:45;;;;;;;5.22;2.70;;;;;;;-0.98;58.74;96892.03;5011840;28;20046;-55
2022/01/30 10:16:11;;;;;;;5.78;2.90;;;;;;;-0.95;59.12;96896.78;5013650;28;20046;-54
2022/01/30 10:18:44;;;;;;;3.40;2.45;;;;;;;-0.97;58.67;96887.63;5013136;28;20046;-54
2022/01/30 10:21:20;;;;;;;6.63;3.00;;;;;;;-1.06;58.24;96882.00;5012000;28;20065;-53
2022/01/30 10:23:46;;;;;;;5.10;3.10;;;;;;;-1.01;58.71;96882.09;5011822;28;20140;-54
2022/01/30 10:26:18;;;;;;;4.20;2.58;;;;;;;-1.06;58.74;96879.41;5028500;28;20066;-52
2022/01/30 10:28:44;;;;;;;5.75;2.97;;;;;;;-0.99;58.89;96885.28;5011822;28;20053;-54
2022/01/30 10:31:10;;;;;;;5.60;2.85;;;;;;;-1.20;58.21;96873.59;5013406;28;20041;-51
2022/01/30 10:33:40;;;;;;;4.10;2.83;;;;;;;-1.12;59.08;96876.88;5011627;28;20491;-52
2022/01/30 10:36:09;;;;;;;3.63;3.00;;;;;;;-1.09;59.40;96871.22;5022786;28;20515;-53
2022/01/30 10:38:41;;;;;;;7.43;3.33;;;;;;;-1.16;59.25;96860.94;4995217;28;20096;-56
2022/01/30 10:41:16;;;;;;;5.63;3.22;;;;;;;-1.06;59.47;96865.56;4995477;28;20046;-55
2022/01/30 10:44:03;;;;;;;5.35;3.00;;;;;;;-1.05;59.28;96867.97;4996111;28;20458;-53
2022/01/30 10:46:38;;;;;;;6.28;3.25;;;;;;;-0.88;58.76;96864.69;5011782;28;20458;-57
2022/01/30 10:49:09;;;;;;;5.60;3.08;;;;;;;-0.76;59.08;96861.09;5012551;28;20123;-54
2022/01/30 10:51:35;;;;;;;5.85;3.08;;;;;;;-0.75;58.16;96860.06;5012508;28;20041;-57
2022/01/30 10:54:06;;;;;;;4.97;3.28;;;;;;;-0.73;58.19;96852.81;5012353;28;20069;-57
2022/01/30 10:56:32;;;;;;;5.05;3.40;;;;;;;-0.71;58.99;96845.59;5011285;28;20045;-56
2022/01/30 10:59:11;;;;;;;7.95;3.85;;;;;;;-0.66;58.39;96842.28;4978520;28;20034;-56
2022/01/30 11:01:44;;;;;;;6.90;3.30;;;;;;;-0.65;59.09;96843.88;5012334;28;20042;-56
2022/01/30 11:04:22;;;;;;;4.35;2.63;;;;;;;-0.72;58.43;96838.78;5012346;28;20081;-56
2022/01/30 11:06:49;;;;;;;5.80;3.63;;;;;;;-0.79;59.10;96824.34;5026893;28;20045;-56
2022/01/30 11:09:21;;;;;;;6.00;3.10;;;;;;;-0.92;58.84;96825.34;5011082;28;20132;-58
2022/01/30 11:11:57;;;;;;;6.70;3.42;;;;;;;-1.07;59.22;96823.19;5012594;28;20162;-57
2022/01/30 11:14:34;;;;;;;4.32;2.70;;;;;;;-1.12;59.54;96820.47;5012310;28;20081;-57
2022/01/30 11:17:05;;;;;;;6.55;3.33;;;;;;;-1.25;60.42;96824.09;5012385;28;20143;-56
2022/01/30 11:19:33;;;;;;;7.38;3.38;;;;;;;-1.28;60.34;96811.53;5012381;28;20099;-56
2022/01/30 11:22:00;;;;;;;5.65;3.47;;;;;;;-1.33;60.55;96811.41;5010759;28;20702;-59
2022/01/30 11:24:26;;;;;;;4.50;3.17;;;;;;;-1.28;61.20;96806.34;5027034;28;20054;-57
2022/01/30 11:26:52;;;;;;;5.93;3.45;;;;;;;-1.29;61.15;96798.78;5010662;28;20404;-56
2022/01/30 11:29:20;;;;;;;6.28;3.55;;;;;;;-1.37;61.23;96802.50;5012161;28;20088;-55
2022/01/30 11:31:47;;;;;;;4.95;2.90;;;;;;;-1.42;61.93;96797.16;5011707;28;20057;-56
2022/01/30 11:34:13;;;;;;;6.22;3.65;;;;;;;-1.53;61.51;96792.75;4994295;28;20045;-57
2022/01/30 11:36:43;;;;;;;7.72;3.70;;;;;;;-1.58;62.00;96788.22;5011729;28;20068;-57
2022/01/30 11:39:19;;;;;;;8.95;3.72;;;;;;;-1.55;62.68;96789.59;5011852;28;20064;-54
2022/01/30 11:42:13;;;;;;;8.82;3.85;;;;;;;-1.56;62.36;96783.59;5011619;28;20523;-55
2022/01/30 11:44:43;;;;;;;7.55;4.28;;;;;;;-1.54;62.17;96780.78;5011889;28;20081;-56
2022/01/30 11:47:09;;;;;;;5.93;3.50;;;;;;;-1.57;62.60;96781.22;5011664;28;20472;-56
2022/01/30 11:49:55;;;;;;;4.47;3.17;;;;;;;-1.52;62.49;96776.16;5011506;28;20133;-59
2022/01/30 11:52:49;;;;;;;5.35;3.15;;;;;;;-1.41;61.90;96775.38;5011590;28;20048;-57
2022/01/30 11:55:43;;;;;;;7.28;4.07;;;;;;;-1.39;62.49;96774.13;5012017;28;20057;-56
2022/01/30 11:58:28;;;;;;;6.43;3.55;;;;;;;-1.49;62.29;96779.09;5011576;28;20045;-58
2022/01/30 12:00:53;;;;;;;12.20;3.33;;;;;;;-1.47;62.35;96771.06;5012119;28;20335;-58
2022/01/30 12:03:29;;;;;;;5.47;3.40;;;;;;;-1.45;62.24;96775.03;5011774;28;20069;-56
2022/01/30 12:05:56;;;;;;;6.22;3.83;;;;;;;-1.44;62.54;96775.81;5010354;28;20046;-57
2022/01/30 12:08:40;;;;;;;6.95;4.40;;;;;;;-1.42;62.53;96778.97;5010191;28;20176;-54
2022/01/30 12:11:28;;;;;;;8.27;3.65;;;;;;;-1.41;62.17;96786.56;5012084;28;20049;-52
2022/01/30 12:13:54;;;;;;;6.68;4.53;;;;;;;-1.49;62.35;96786.09;5011293;28;20107;-57
2022/01/30 12:16:43;;;;;;;9.43;4.00;;;;;;;-1.46;62.72;96785.66;5027189;28;20041;-55
2022/01/30 12:19:11;;;;;;;6.75;4.22;;;;;;;-1.47;62.55;96778.84;5015702;28;20038;-58
2022/01/30 12:21:38;;;;;;;7.78;3.88;;;;;;;-1.44;62.80;96783.59;5014054;28;20057;-56
2022/01/30 12:24:27;;;;;;;7.32;4.30;;;;;;;-1.43;62.57;96780.78;5015299;28;20482;-57
2022/01/30 12:27:02;;;;;;;8.30;4.55;;;;;;;-1.37;62.82;96779.09;5015289;28;20046;-54
2022/01/30 12:29:40;;;;;;;8.23;4.60;;;;;;;-1.30;63.18;96795.38;5015507;28;20046;-57
2022/01/30 12:32:24;;;;;;;6.32;3.50;;;;;;;-1.37;63.04;96794.69;4997492;28;20049;-53
2022/01/30 12:34:56;;;;;;;7.00;3.95;;;;;;;-1.40;62.60;96788.13;5015180;28;20056;-57
2022/01/30 12:37:24;;;;;;;6.47;3.70;;;;;;;-1.40;62.72;96788.13;5018244;28;20148;-58
2022/01/30 12:39:52;;;;;;;7.13;4.10;;;;;;;-1.42;63.18;96778.97;5033108;28;20094;-55
2022/01/30 12:42:18;;;;;;;7.90;3.75;;;;;;;-1.46;62.75;96778.66;5016329;28;20045;-56